Back to Top

Language: 

My Weather Underground Personal Weather Station Historical Data with Graphs...

Delerius Weather Station Historical Data
Daily Summary for August 2, 2017 Units:  Metric    English   Both
« Previous Day
Next Day »
Daily Weekly Monthly Yearly Custom
  High: Low: Average:
Temperature: 19.6 °C 12.6 °C 16 °C
Dew Point: 16.8 °C 11.1 °C 14.1 °C
Humidity: 94 % 79 % 89 %
Wind Speed: 20.9 km/h 0 km/h 10.8 km/h
Wind Gust: 38.6 km/h - -
Wind:- - South
Pressure: 1012.4 hPa 1000.9 hPa -
Precipitation: 1.52 mm    
Historical Graphs
 
 
Tabular Data for August 2, 2017
Time Temperature Dew Point Pressure Wind Wind Speed Wind Gust Humidity Rainfall Rate (Hourly) solar Conditions
00:04 13.1 °C 11.3 °C 1012.4 hPa Calm   3.2 km/h 89 % 0 mm 0 W/m2
00:09 13.1 °C 11.3 °C 1012.4 hPa Calm   3.2 km/h 89 % 0 mm 0 W/m2
00:14 13 °C 11.4 °C 1012.4 hPa Calm   1.6 km/h 90 % 0 mm 0 W/m2
00:19 12.9 °C 11.3 °C 1012.4 hPa Calm     90 % 0 mm 0 W/m2
00:24 12.9 °C 11.3 °C 1012.4 hPa Calm     90 % 0 mm 0 W/m2
00:29 12.8 °C 11.2 °C 1012.4 hPa Calm     90 % 0 mm 0 W/m2
00:34 12.7 °C 11.1 °C 1012.4 hPa Calm     90 % 0 mm 0 W/m2
00:39 12.6 °C 11.2 °C 1012.4 hPa Calm     91 % 0 mm 0 W/m2
00:44 12.6 °C 11.2 °C 1012.4 hPa Calm   1.6 km/h 91 % 0 mm 0 W/m2
00:49 12.6 °C 11.2 °C 1012.4 hPa Calm   3.2 km/h 91 % 0 mm 0 W/m2
00:54 12.7 °C 11.3 °C 1012.4 hPa Calm   3.2 km/h 91 % 0 mm 0 W/m2
00:59 12.8 °C 11.6 °C 1012.4 hPa Calm     92 % 0 mm 0 W/m2
01:04 12.8 °C 11.4 °C 1012.1 hPa Calm     91 % 0 mm 0 W/m2
01:09 12.8 °C 11.4 °C 1012.1 hPa Calm     91 % 0 mm 0 W/m2
01:14 12.8 °C 11.4 °C 1012.1 hPa Calm     91 % 0 mm 0 W/m2
01:19 12.8 °C 11.4 °C 1012.1 hPa Calm     91 % 0 mm 0 W/m2
01:24 12.8 °C 11.4 °C 1012.1 hPa Calm     91 % 0 mm 0 W/m2
01:29 12.9 °C 11.4 °C 1012.1 hPa Calm     91 % 0 mm 0 W/m2
01:34 12.9 °C 11.4 °C 1012.1 hPa Calm     91 % 0 mm 0 W/m2
01:39 12.9 °C 11.6 °C 1012.1 hPa Calm   6.4 km/h 92 % 0 mm 0 W/m2
01:44 13 °C 11.7 °C 1012.1 hPa WSW 3.2 km/h 8 km/h 92 % 0 mm 0 W/m2
01:49 13.2 °C 11.9 °C 1011.7 hPa SW 4.8 km/h 11.3 km/h 92 % 0 mm 0 W/m2
01:54 13.2 °C 11.9 °C 1012.1 hPa SW 6.4 km/h 11.3 km/h 92 % 0 mm 0 W/m2
01:59 13.3 °C 11.9 °C 1012.1 hPa SW 8 km/h 11.3 km/h 91 % 0 mm 0 W/m2
02:04 13.3 °C 11.9 °C 1012.1 hPa SW 6.4 km/h 11.3 km/h 91 % 0 mm 0 W/m2
02:09 13.4 °C 11.9 °C 1012.1 hPa SW 6.4 km/h 11.3 km/h 91 % 0 mm 0 W/m2
02:14 13.4 °C 11.9 °C 1011.7 hPa SW 6.4 km/h 11.3 km/h 91 % 0 mm 0 W/m2
02:19 13.4 °C 11.8 °C 1011.7 hPa SW 4.8 km/h 9.7 km/h 90 % 0 mm 0 W/m2
02:24 13.4 °C 11.8 °C 1011.7 hPa SW 4.8 km/h 8 km/h 90 % 0 mm 0 W/m2
02:29 13.5 °C 11.9 °C 1011.7 hPa SW 3.2 km/h 9.7 km/h 90 % 0 mm 0 W/m2
02:31 13.5 °C 11.9 °C 1011.7 hPa SW 3.2 km/h 9.7 km/h 90 % 0 mm 0 W/m2
02:36 13.5 °C 11.9 °C 1011.7 hPa SW 3.2 km/h 8 km/h 90 % 0 mm 0 W/m2
02:41 13.5 °C 11.9 °C 1011.7 hPa SW 4.8 km/h 11.3 km/h 90 % 0 mm 0 W/m2
02:46 13.6 °C 12 °C 1011.7 hPa SW 6.4 km/h 12.9 km/h 90 % 0 mm 0 W/m2
02:51 13.6 °C 11.8 °C 1011.7 hPa SW 6.4 km/h 12.9 km/h 89 % 0 mm 0 W/m2
02:56 13.6 °C 11.7 °C 1011.7 hPa SW 6.4 km/h 11.3 km/h 88 % 0 mm 0 W/m2
03:01 13.6 °C 11.7 °C 1011.7 hPa SW 6.4 km/h 11.3 km/h 88 % 0 mm 0 W/m2
03:06 13.6 °C 11.7 °C 1011.7 hPa SW 4.8 km/h 9.7 km/h 88 % 0 mm 0 W/m2
03:11 13.6 °C 11.7 °C 1011.7 hPa SW 6.4 km/h 11.3 km/h 88 % 0 mm 0 W/m2
03:13 13.6 °C 11.7 °C 1011.7 hPa SW 6.4 km/h 11.3 km/h 88 % 0 mm 0 W/m2
03:18 13.6 °C 11.7 °C 1011.7 hPa SW 4.8 km/h 11.3 km/h 88 % 0 mm 0 W/m2
03:23 13.6 °C 11.7 °C 1011.7 hPa SW 4.8 km/h 11.3 km/h 88 % 0 mm 0 W/m2
03:28 13.6 °C 11.7 °C 1011.7 hPa SW 6.4 km/h 12.9 km/h 88 % 0 mm 0 W/m2
03:33 13.5 °C 11.6 °C 1011.7 hPa SW 6.4 km/h 12.9 km/h 88 % 0 mm 0 W/m2
03:38 13.5 °C 11.6 °C 1011.7 hPa SW 6.4 km/h 11.3 km/h 88 % 0 mm 0 W/m2
03:43 13.5 °C 11.6 °C 1011.7 hPa SW 8 km/h 11.3 km/h 88 % 0 mm 0 W/m2
03:48 13.5 °C 11.6 °C 1011.7 hPa SW 6.4 km/h 11.3 km/h 88 % 0 mm 0 W/m2
03:53 13.5 °C 11.6 °C 1011.7 hPa SW 4.8 km/h 11.3 km/h 88 % 0 mm 0 W/m2
03:58 13.4 °C 11.4 °C 1011.7 hPa SW 3.2 km/h 9.7 km/h 88 % 0 mm 0 W/m2
04:03 13.5 °C 11.6 °C 1011.7 hPa SW 3.2 km/h 9.7 km/h 88 % 0 mm 0 W/m2
04:08 13.4 °C 11.4 °C 1011.7 hPa SW 4.8 km/h 11.3 km/h 88 % 0 mm 0 W/m2
04:13 13.5 °C 11.6 °C 1011.7 hPa SW 6.4 km/h 11.3 km/h 88 % 0 mm 0 W/m2
04:14 13.5 °C 11.6 °C 1011.7 hPa SW 6.4 km/h 11.3 km/h 88 % 0 mm 0 W/m2
04:19 13.6 °C 11.7 °C 1011.7 hPa SW 8 km/h 11.3 km/h 88 % 0 mm 0 W/m2
04:24 13.6 °C 11.7 °C 1011.7 hPa SW 6.4 km/h 11.3 km/h 88 % 0 mm 0 W/m2
04:29 13.6 °C 11.7 °C 1011.7 hPa SSW 3.2 km/h 9.7 km/h 88 % 0 mm 0 W/m2
04:34 13.6 °C 11.7 °C 1011.7 hPa SSW 1.6 km/h 6.4 km/h 88 % 0 mm 0 W/m2
04:35 13.6 °C 11.7 °C 1011.7 hPa SSW 1.6 km/h 6.4 km/h 88 % 0 mm 0 W/m2
04:40 13.6 °C 11.7 °C 1011.4 hPa SSW 1.6 km/h 8 km/h 88 % 0 mm 0 W/m2
04:45 13.6 °C 11.7 °C 1011.7 hPa SSW 1.6 km/h 8 km/h 88 % 0 mm 0 W/m2
04:50 13.7 °C 11.7 °C 1011.7 hPa Calm   6.4 km/h 88 % 0 mm 0 W/m2
04:55 13.7 °C 11.7 °C 1011.7 hPa Calm   6.4 km/h 88 % 0 mm 0 W/m2
05:00 13.7 °C 11.7 °C 1011.4 hPa Calm   3.2 km/h 88 % 0 mm 0 W/m2
05:05 13.6 °C 11.7 °C 1011.4 hPa Calm   8 km/h 88 % 0 mm 0 W/m2
05:10 13.6 °C 11.7 °C 1011.4 hPa Calm   8 km/h 88 % 0 mm 0 W/m2
05:15 13.6 °C 11.7 °C 1011.4 hPa Calm   8 km/h 88 % 0 mm 0 W/m2
05:20 13.6 °C 11.7 °C 1011.4 hPa SSW 1.6 km/h 8 km/h 88 % 0 mm 0 W/m2
05:25 13.7 °C 11.7 °C 1011.4 hPa SSW 1.6 km/h 8 km/h 88 % 0 mm 0 W/m2
05:30 13.7 °C 11.7 °C 1011.4 hPa SSW 1.6 km/h 9.7 km/h 88 % 0 mm 0 W/m2
05:35 13.7 °C 11.7 °C 1011.4 hPa SSW 1.6 km/h 9.7 km/h 88 % 0 mm 0 W/m2
05:40 13.7 °C 11.7 °C 1011.4 hPa SSW 1.6 km/h 9.7 km/h 88 % 0 mm 0 W/m2
05:45 13.7 °C 11.7 °C 1011.4 hPa SSW 3.2 km/h 9.7 km/h 88 % 0 mm 0 W/m2
05:51 13.8 °C 11.7 °C 1011.4 hPa SSW 3.2 km/h 11.3 km/h 87 % 0 mm 5 W/m2
05:56 13.8 °C 11.7 °C 1011.4 hPa South 6.4 km/h 14.5 km/h 87 % 0 mm 7 W/m2
06:01 13.9 °C 11.8 °C 1011.4 hPa South 8 km/h 16.1 km/h 87 % 0 mm 11 W/m2
06:06 13.9 °C 11.8 °C 1011.4 hPa South 8 km/h 16.1 km/h 87 % 0 mm 12 W/m2
06:11 13.9 °C 11.8 °C 1011.1 hPa South 8 km/h 14.5 km/h 87 % 0 mm 14 W/m2
06:16 13.9 °C 11.8 °C 1011.1 hPa South 8 km/h 14.5 km/h 87 % 0 mm 19 W/m2
06:21 13.9 °C 11.8 °C 1011.1 hPa SSW 6.4 km/h 14.5 km/h 87 % 0 mm 23 W/m2
06:26 13.9 °C 11.8 °C 1011.1 hPa SSW 4.8 km/h 14.5 km/h 87 % 0 mm 21 W/m2
06:31 13.9 °C 11.8 °C 1011.1 hPa SSW 3.2 km/h 11.3 km/h 87 % 0 mm 23 W/m2
06:36 14 °C 11.9 °C 1011.1 hPa South 4.8 km/h 11.3 km/h 87 % 0 mm 30 W/m2
06:41 14 °C 11.9 °C 1011.1 hPa SSE 6.4 km/h 12.9 km/h 87 % 0 mm 42 W/m2
06:46 13.9 °C 11.8 °C 1011.1 hPa SSE 8 km/h 12.9 km/h 87 % 0 mm 46 W/m2
06:51 13.9 °C 11.9 °C 1011.1 hPa SSE 6.4 km/h 11.3 km/h 88 % 0 mm 56 W/m2
06:56 13.9 °C 11.9 °C 1011.1 hPa SSE 3.2 km/h 9.7 km/h 88 % 0 mm 72 W/m2
07:02 13.9 °C 11.9 °C 1011.1 hPa South 4.8 km/h 11.3 km/h 88 % 0 mm 90 W/m2
07:07 14.1 °C 12.2 °C 1011.1 hPa SSW 4.8 km/h 11.3 km/h 88 % 0 mm 74 W/m2
07:12 14.1 °C 12.2 °C 1011.1 hPa SSW 8 km/h 14.5 km/h 88 % 0 mm 54 W/m2
07:17 14.2 °C 12.2 °C 1011.1 hPa SSW 8 km/h 14.5 km/h 88 % 0 mm 46 W/m2
07:22 14.2 °C 12.2 °C 1011.1 hPa SSW 6.4 km/h 14.5 km/h 88 % 0 mm 42 W/m2
07:27 14.2 °C 12.2 °C 1011.1 hPa SSW 8 km/h 14.5 km/h 88 % 0 mm 26 W/m2
07:32 14.2 °C 12.4 °C 1011.1 hPa SSW 11.3 km/h 22.5 km/h 89 % 0 mm 37 W/m2
07:37 14.2 °C 12.4 °C 1011.1 hPa SSW 12.9 km/h 22.5 km/h 89 % 0 mm 37 W/m2
07:42 14.2 °C 12.4 °C 1011.1 hPa SW 12.9 km/h 19.3 km/h 89 % 0 mm 42 W/m2
07:47 14.3 °C 12.5 °C 1011.1 hPa SW 12.9 km/h 19.3 km/h 89 % 0 mm 51 W/m2
07:52 14.3 °C 12.5 °C 1011.1 hPa SSW 12.9 km/h 20.9 km/h 89 % 0 mm 69 W/m2
07:57 14.3 °C 12.5 °C 1011.1 hPa SSW 14.5 km/h 20.9 km/h 89 % 0 mm 70 W/m2
08:02 14.4 °C 12.6 °C 1011.1 hPa SSW 12.9 km/h 20.9 km/h 89 % 0 mm 88 W/m2
08:07 14.4 °C 12.6 °C 1011.1 hPa SSW 9.7 km/h 16.1 km/h 89 % 0 mm 77 W/m2
08:12 14.4 °C 12.6 °C 1011.1 hPa SSW 6.4 km/h 14.5 km/h 89 % 0 mm 70 W/m2
08:15 14.5 °C 12.7 °C 1010.7 hPa SSW 4.8 km/h 11.3 km/h 89 % 0 mm 74 W/m2
08:20 14.6 °C 12.8 °C 1010.7 hPa SSW 6.4 km/h 14.5 km/h 89 % 0 mm 76 W/m2
08:25 14.6 °C 12.8 °C 1010.7 hPa SSW 4.8 km/h 16.1 km/h 89 % 0 mm 63 W/m2
08:30 14.6 °C 12.8 °C 1010.4 hPa South 3.2 km/h 16.1 km/h 89 % 0 mm 72 W/m2
08:35 14.6 °C 12.8 °C 1010.4 hPa SSE 4.8 km/h 9.7 km/h 89 % 0 mm 91 W/m2
08:40 14.6 °C 12.8 °C 1010.4 hPa SSE 3.2 km/h 8 km/h 89 % 0 mm 120 W/m2
08:45 14.6 °C 12.8 °C 1010.4 hPa SSE 3.2 km/h 9.7 km/h 89 % 0 mm 183 W/m2
08:50 14.7 °C 12.9 °C 1010.4 hPa SSE 3.2 km/h 9.7 km/h 89 % 0 mm 258 W/m2
08:55 14.9 °C 13.1 °C 1010.4 hPa SSE 4.8 km/h 12.9 km/h 89 % 0 mm 315 W/m2
09:00 15.1 °C 13.3 °C 1010.4 hPa South 8 km/h 14.5 km/h 89 % 0 mm 218 W/m2
09:05 15.2 °C 13.2 °C 1010.4 hPa South 9.7 km/h 19.3 km/h 88 % 0 mm 246 W/m2
09:10 15.3 °C 13.2 °C 1010.4 hPa South 9.7 km/h 19.3 km/h 87 % 0 mm 202 W/m2
09:15 15.4 °C 13.2 °C 1010.4 hPa South 9.7 km/h 22.5 km/h 87 % 0 mm 186 W/m2
09:20 15.5 °C 13.3 °C 1010.4 hPa SSE 9.7 km/h 22.5 km/h 87 % 0 mm 176 W/m2
09:25 15.5 °C 13.2 °C 1010.4 hPa SSE 11.3 km/h 19.3 km/h 86 % 0 mm 155 W/m2
09:30 15.5 °C 13.2 °C 1010.4 hPa SSE 12.9 km/h 22.5 km/h 86 % 0 mm 163 W/m2
09:35 15.5 °C 13.2 °C 1010.4 hPa SSE 14.5 km/h 22.5 km/h 86 % 0 mm 176 W/m2
09:40 15.5 °C 13.2 °C 1010.4 hPa SSE 12.9 km/h 20.9 km/h 86 % 0 mm 144 W/m2
09:45 15.6 °C 13.4 °C 1010 hPa SSE 12.9 km/h 24.1 km/h 87 % 0 mm 200 W/m2
09:50 15.6 °C 13.4 °C 1010 hPa SSE 11.3 km/h 24.1 km/h 87 % 0 mm 265 W/m2
09:55 15.7 °C 13.6 °C 1010 hPa SSE 12.9 km/h 22.5 km/h 87 % 0 mm 230 W/m2
10:00 15.8 °C 13.7 °C 1010 hPa SSE 12.9 km/h 24.1 km/h 87 % 0 mm 197 W/m2
10:05 15.8 °C 13.4 °C 1010 hPa SSE 12.9 km/h 24.1 km/h 86 % 0 mm 220 W/m2
10:10 15.9 °C 13.6 °C 1010 hPa SSE 12.9 km/h 22.5 km/h 86 % 0 mm 304 W/m2
10:15 16 °C 13.7 °C 1009.7 hPa South 12.9 km/h 20.9 km/h 86 % 0 mm 301 W/m2
10:20 16.1 °C 13.8 °C 1009.7 hPa SSE 14.5 km/h 22.5 km/h 86 % 0 mm 380 W/m2
10:25 16.2 °C 13.5 °C 1009.7 hPa SSE 16.1 km/h 32.2 km/h 84 % 0 mm 338 W/m2
10:30 16.3 °C 13.6 °C 1009.4 hPa SSE 16.1 km/h 32.2 km/h 84 % 0 mm 364 W/m2
10:35 16.6 °C 13.7 °C 1009.4 hPa SSE 16.1 km/h 32.2 km/h 83 % 0 mm 390 W/m2
10:40 16.7 °C 13.8 °C 1009.4 hPa SSE 16.1 km/h 30.6 km/h 83 % 0 mm 355 W/m2
10:45 16.9 °C 14 °C 1009.4 hPa SSE 12.9 km/h 29 km/h 83 % 0 mm 301 W/m2
10:50 17.1 °C 14 °C 1009.4 hPa SSE 12.9 km/h 25.7 km/h 82 % 0 mm 334 W/m2
10:55 17.1 °C 14 °C 1009 hPa SSE 14.5 km/h 25.7 km/h 82 % 0 mm 364 W/m2
11:00 17.3 °C 14 °C 1009 hPa SSE 14.5 km/h 25.7 km/h 81 % 0 mm 336 W/m2
11:05 17.4 °C 13.9 °C 1009 hPa SSE 16.1 km/h 33.8 km/h 80 % 0 mm 278 W/m2
11:10 17.5 °C 14 °C 1009 hPa SSE 14.5 km/h 33.8 km/h 80 % 0 mm 294 W/m2
11:15 17.3 °C 13.6 °C 1008.7 hPa South 17.7 km/h 37 km/h 79 % 0 mm 322 W/m2
11:20 17.2 °C 13.7 °C 1008.7 hPa South 20.9 km/h 37 km/h 80 % 0 mm 285 W/m2
11:25 17 °C 13.9 °C 1008.7 hPa South 17.7 km/h 29 km/h 82 % 0 mm 346 W/m2
11:31 16.9 °C 14 °C 1008.7 hPa South 16.1 km/h 25.7 km/h 83 % 0 mm 355 W/m2
11:36 16.8 °C 14.1 °C 1008.7 hPa SSE 17.7 km/h 33.8 km/h 84 % 0 mm 316 W/m2
11:41 16.6 °C 14.2 °C 1008.4 hPa SSE 19.3 km/h 33.8 km/h 86 % 0 mm 271 W/m2
11:46 16.4 °C 14.4 °C 1008.4 hPa SSE 19.3 km/h 32.2 km/h 88 % 0 mm 220 W/m2
11:51 16.2 °C 14.4 °C 1008.4 hPa SSE 19.3 km/h 37 km/h 89 % 0 mm 255 W/m2
11:56 16.1 °C 14.4 °C 1008.4 hPa SSE 17.7 km/h 37 km/h 90 % 0 mm 199 W/m2
12:01 16.1 °C 14.6 °C 1008 hPa SSE 16.1 km/h 32.2 km/h 91 % 0 mm 178 W/m2
12:06 16 °C 14.6 °C 1008 hPa SSE 16.1 km/h 29 km/h 91 % 0 mm 204 W/m2
12:11 15.9 °C 14.4 °C 1008 hPa SSE 16.1 km/h 29 km/h 91 % 0 mm 153 W/m2
12:16 15.9 °C 14.4 °C 1008 hPa SSE 14.5 km/h 30.6 km/h 91 % 0 mm 250 W/m2
12:21 15.9 °C 14.4 °C 1007.7 hPa SSE 16.1 km/h 30.6 km/h 91 % 0 mm 165 W/m2
12:26 15.9 °C 14.4 °C 1007.7 hPa SSE 17.7 km/h 30.6 km/h 91 % 0 mm 211 W/m2
12:31 15.8 °C 14.3 °C 1007.7 hPa SSE 17.7 km/h 29 km/h 91 % 0 mm 211 W/m2
12:36 15.8 °C 14.5 °C 1007.7 hPa SE 19.3 km/h 32.2 km/h 92 % 0 mm 211 W/m2
12:41 15.9 °C 14.6 °C 1007.3 hPa SSE 20.9 km/h 32.2 km/h 92 % 0 mm 339 W/m2
12:46 16 °C 14.7 °C 1007.3 hPa SSE 19.3 km/h 37 km/h 92 % 0 mm 292 W/m2
12:51 16 °C 14.6 °C 1007.3 hPa SSE 19.3 km/h 37 km/h 91 % 0 mm 302 W/m2
12:56 16.1 °C 14.6 °C 1007.3 hPa SSE 19.3 km/h 33.8 km/h 91 % 0 mm 255 W/m2
13:01 16.2 °C 14.7 °C 1007.3 hPa SSE 19.3 km/h 33.8 km/h 91 % 0 mm 292 W/m2
13:06 16.2 °C 14.7 °C 1007.3 hPa SSE 19.3 km/h 35.4 km/h 91 % 0 mm 290 W/m2
13:11 16.3 °C 14.8 °C 1007.3 hPa SSE 20.9 km/h 35.4 km/h 91 % 0 mm 260 W/m2
13:16 16.3 °C 14.8 °C 1007 hPa SSE 19.3 km/h 35.4 km/h 91 % 0 mm 322 W/m2
13:21 16.2 °C 14.7 °C 1007 hPa SSE 19.3 km/h 33.8 km/h 91 % 0 mm 165 W/m2
13:26 16.1 °C 14.6 °C 1007 hPa SSE 19.3 km/h 33.8 km/h 91 % 0 mm 185 W/m2
13:31 16.1 °C 14.8 °C 1006.7 hPa SSE 16.1 km/h 33.8 km/h 92 % 0 mm 167 W/m2
13:36 16.1 °C 14.8 °C 1006.7 hPa SSE 17.7 km/h 30.6 km/h 92 % 0 mm 204 W/m2
13:41 15.9 °C 14.6 °C 1006.7 hPa SSE 17.7 km/h 30.6 km/h 92 % 0 mm 163 W/m2
13:46 15.9 °C 14.6 °C 1006.7 hPa SSE 17.7 km/h 33.8 km/h 92 % 0 mm 165 W/m2
13:51 15.9 °C 14.6 °C 1006.7 hPa SSE 17.7 km/h 33.8 km/h 92 % 0 mm 218 W/m2
13:56 16 °C 14.7 °C 1006.7 hPa SSE 17.7 km/h 30.6 km/h 92 % 0 mm 232 W/m2
14:01 16.1 °C 14.9 °C 1006.3 hPa SSE 17.7 km/h 35.4 km/h 93 % 0 mm 213 W/m2
14:07 16.1 °C 14.9 °C 1006.7 hPa South 17.7 km/h 35.4 km/h 93 % 0 mm 199 W/m2
14:12 16.2 °C 15.1 °C 1006.3 hPa South 16.1 km/h 30.6 km/h 93 % 0 mm 279 W/m2
14:17 16.3 °C 15.2 °C 1006.3 hPa SSE 17.7 km/h 33.8 km/h 93 % 0 mm 346 W/m2
14:22 16.4 °C 15.1 °C 1006.3 hPa South 19.3 km/h 33.8 km/h 92 % 0 mm 297 W/m2
14:27 16.6 °C 15.3 °C 1006.3 hPa South 17.7 km/h 35.4 km/h 92 % 0 mm 255 W/m2
14:32 16.6 °C 15.1 °C 1006.3 hPa South 16.1 km/h 35.4 km/h 91 % 0 mm 290 W/m2
14:37 16.8 °C 15.3 °C 1006.3 hPa South 14.5 km/h 30.6 km/h 91 % 0 mm 258 W/m2
14:42 16.9 °C 15.2 °C 1006.3 hPa South 16.1 km/h 33.8 km/h 90 % 0 mm 294 W/m2
14:47 16.9 °C 15.2 °C 1006 hPa South 17.7 km/h 35.4 km/h 90 % 0 mm 454 W/m2
14:52 17.1 °C 15.4 °C 1006 hPa South 17.7 km/h 35.4 km/h 90 % 0 mm 429 W/m2
14:57 17.2 °C 15.6 °C 1005.6 hPa South 17.7 km/h 38.6 km/h 90 % 0 mm 417 W/m2
15:02 17.2 °C 15.6 °C 1005.6 hPa South 19.3 km/h 38.6 km/h 90 % 0 mm 315 W/m2
15:07 17.2 °C 15.6 °C 1005.6 hPa South 19.3 km/h 35.4 km/h 90 % 0 mm 418 W/m2
15:12 17.2 °C 15.6 °C 1005.6 hPa South 17.7 km/h 33.8 km/h 90 % 0 mm 499 W/m2
15:17 17.4 °C 15.7 °C 1005.6 hPa SSE 17.7 km/h 32.2 km/h 90 % 0 mm 452 W/m2
15:22 17.4 °C 15.6 °C 1005.3 hPa South 16.1 km/h 32.2 km/h 89 % 0 mm 290 W/m2
15:27 17.5 °C 15.7 °C 1005.3 hPa South 17.7 km/h 33.8 km/h 89 % 0 mm 271 W/m2
15:32 17.5 °C 15.7 °C 1005.3 hPa South 17.7 km/h 33.8 km/h 89 % 0 mm 276 W/m2
15:37 17.5 °C 15.7 °C 1005.3 hPa South 16.1 km/h 32.2 km/h 89 % 0 mm 218 W/m2
15:42 17.4 °C 15.6 °C 1005.3 hPa South 16.1 km/h 32.2 km/h 89 % 0 mm 244 W/m2
15:47 17.4 °C 15.6 °C 1005.3 hPa South 14.5 km/h 30.6 km/h 89 % 0 mm 214 W/m2
15:52 17.4 °C 15.7 °C 1005.3 hPa South 14.5 km/h 30.6 km/h 90 % 0 mm 149 W/m2
15:57 17.3 °C 15.7 °C 1005.3 hPa South 14.5 km/h 30.6 km/h 90 % 0 mm 144 W/m2
16:02 17.2 °C 15.6 °C 1005.3 hPa SSE 14.5 km/h 25.7 km/h 90 % 0 mm 311 W/m2
16:07 17.2 °C 15.7 °C 1005.3 hPa SSE 16.1 km/h 25.7 km/h 91 % 0 mm 309 W/m2
16:12 17.2 °C 15.7 °C 1005.3 hPa SSE 16.1 km/h 29 km/h 91 % 0 mm 306 W/m2
16:17 17.2 °C 15.7 °C 1005 hPa SSE 17.7 km/h 29 km/h 91 % 0 mm 387 W/m2
16:22 17.3 °C 15.8 °C 1005 hPa SSE 17.7 km/h 29 km/h 91 % 0 mm 246 W/m2
16:27 17.4 °C 15.9 °C 1005 hPa SSE 16.1 km/h 29 km/h 91 % 0 mm 271 W/m2
16:32 17.5 °C 16 °C 1004.6 hPa SSE 14.5 km/h 25.7 km/h 91 % 0 mm 334 W/m2
16:37 17.7 °C 16.1 °C 1004.6 hPa SSE 16.1 km/h 29 km/h 90 % 0 mm 703 W/m2
16:42 17.9 °C 16.1 °C 1004.3 hPa SSE 17.7 km/h 29 km/h 89 % 0 mm 459 W/m2
16:47 18.2 °C 16.3 °C 1004.3 hPa SSE 16.1 km/h 29 km/h 89 % 0 mm 350 W/m2
16:52 18.2 °C 16 °C 1004.3 hPa SSE 16.1 km/h 25.7 km/h 87 % 0 mm 599 W/m2
16:57 18.4 °C 16.2 °C 1004.3 hPa SSE 16.1 km/h 25.7 km/h 87 % 0 mm 534 W/m2
17:02 18.6 °C 16.2 °C 1004.3 hPa SSE 17.7 km/h 32.2 km/h 86 % 0 mm 554 W/m2
17:07 18.7 °C 16.1 °C 1004.3 hPa SSE 19.3 km/h 32.2 km/h 85 % 0 mm 534 W/m2
17:12 18.8 °C 16.1 °C 1004.3 hPa SSE 17.7 km/h 32.2 km/h 84 % 0 mm 279 W/m2
17:17 18.8 °C 16.1 °C 1003.9 hPa SSE 16.1 km/h 32.2 km/h 84 % 0 mm 200 W/m2
17:22 18.9 °C 16.1 °C 1003.9 hPa SSE 16.1 km/h 32.2 km/h 84 % 0 mm 417 W/m2
17:27 19.1 °C 16.2 °C 1003.9 hPa South 17.7 km/h 32.2 km/h 83 % 0 mm 584 W/m2
17:32 19.2 °C 16.1 °C 1003.6 hPa South 17.7 km/h 35.4 km/h 82 % 0 mm 503 W/m2
17:37 19.4 °C 16.2 °C 1003.6 hPa South 17.7 km/h 35.4 km/h 82 % 0 mm 501 W/m2
17:42 19.6 °C 16.2 °C 1003.6 hPa South 17.7 km/h 33.8 km/h 81 % 0 mm 388 W/m2
17:47 19.5 °C 15.9 °C 1003.3 hPa SSE 16.1 km/h 33.8 km/h 80 % 0 mm 464 W/m2
17:52 19.5 °C 15.9 °C 1003.3 hPa SSE 16.1 km/h 33.8 km/h 80 % 0 mm 406 W/m2
17:57 19.6 °C 16.2 °C 1003.3 hPa SSE 19.3 km/h 35.4 km/h 81 % 0 mm 113 W/m2
18:02 19.4 °C 16.1 °C 1003.6 hPa SSE 20.9 km/h 37 km/h 81 % 0 mm 142 W/m2
18:07 19.1 °C 15.9 °C 1003.3 hPa SSE 20.9 km/h 37 km/h 82 % 0 mm 209 W/m2
18:12 19.1 °C 16.2 °C 1003.3 hPa SSE 17.7 km/h 35.4 km/h 83 % 0 mm 156 W/m2
18:17 19.1 °C 16.2 °C 1003.3 hPa SSE 19.3 km/h 35.4 km/h 83 % 0 mm 137 W/m2
18:22 19 °C 16.1 °C 1003.3 hPa SSE 19.3 km/h 35.4 km/h 83 % 0 mm 132 W/m2
18:27 19.1 °C 16.2 °C 1003.3 hPa South 16.1 km/h 32.2 km/h 83 % 0 mm 438 W/m2
18:30 19.1 °C 16.2 °C 1002.9 hPa SSE 16.1 km/h 32.2 km/h 83 % 0 mm 355 W/m2
18:35 19.2 °C 16.2 °C 1002.9 hPa SSE 16.1 km/h 32.2 km/h 83 % 0 mm 202 W/m2
18:40 19.1 °C 16.2 °C 1002.9 hPa SSE 16.1 km/h 32.2 km/h 83 % 0 mm 114 W/m2
18:46 18.9 °C 15.9 °C 1002.9 hPa SSE 16.1 km/h 29 km/h 83 % 0 mm 137 W/m2
18:48 18.9 °C 16.1 °C 1002.9 hPa SSE 16.1 km/h 29 km/h 84 % 0 mm 104 W/m2
18:53 18.8 °C 16.1 °C 1002.9 hPa SSE 17.7 km/h 29 km/h 84 % 0 mm 195 W/m2
18:58 18.7 °C 15.9 °C 1002.9 hPa SSE 17.7 km/h 29 km/h 84 % 0 mm 134 W/m2
19:03 18.7 °C 16.1 °C 1002.9 hPa SSE 14.5 km/h 24.1 km/h 85 % 0 mm 144 W/m2
19:08 18.8 °C 16.2 °C 1002.9 hPa SSE 12.9 km/h 22.5 km/h 85 % 0 mm 183 W/m2
19:13 18.8 °C 16.2 °C 1002.9 hPa SSE 12.9 km/h 22.5 km/h 85 % 0 mm 77 W/m2
19:18 18.8 °C 16.2 °C 1002.6 hPa SSE 14.5 km/h 20.9 km/h 85 % 0 mm 84 W/m2
19:23 18.7 °C 16.1 °C 1002.6 hPa SSE 12.9 km/h 20.9 km/h 85 % 0 mm 83 W/m2
19:28 18.7 °C 16.1 °C 1002.6 hPa SE 12.9 km/h 20.9 km/h 85 % 0 mm 90 W/m2
19:31 18.7 °C 16.1 °C 1002.6 hPa SE 12.9 km/h 20.9 km/h 85 % 0 mm 105 W/m2
19:36 18.7 °C 16.3 °C 1002.6 hPa SE 11.3 km/h 19.3 km/h 86 % 0 mm 105 W/m2
19:41 18.8 °C 16.4 °C 1002.3 hPa SE 11.3 km/h 20.9 km/h 86 % 0 mm 83 W/m2
19:46 18.8 °C 16.4 °C 1002.3 hPa SE 12.9 km/h 20.9 km/h 86 % 0 mm 40 W/m2
19:51 18.8 °C 16.4 °C 1002.3 hPa SE 11.3 km/h 17.7 km/h 86 % 0 mm 33 W/m2
19:56 18.8 °C 16.4 °C 1002.3 hPa SE 11.3 km/h 20.9 km/h 86 % 0 mm 26 W/m2
20:01 18.8 °C 16.4 °C 1002.3 hPa SE 11.3 km/h 20.9 km/h 86 % 0 mm 16 W/m2
20:06 18.7 °C 16.5 °C 1002.3 hPa SE 11.3 km/h 20.9 km/h 87 % 0 mm 14 W/m2
20:11 18.7 °C 16.5 °C 1002.3 hPa SSE 12.9 km/h 20.9 km/h 87 % 0 mm 21 W/m2
20:16 18.7 °C 16.5 °C 1002.3 hPa SSE 12.9 km/h 20.9 km/h 87 % 0 mm 28 W/m2
20:21 18.7 °C 16.5 °C 1001.9 hPa SSE 11.3 km/h 17.7 km/h 87 % 0 mm 23 W/m2
20:27 18.6 °C 16.6 °C 1002.3 hPa SSE 11.3 km/h 17.7 km/h 88 % 0 mm 11 W/m2
20:31 18.5 °C 16.7 °C 1002.3 hPa South 11.3 km/h 19.3 km/h 89 % 0 mm 11 W/m2
20:37 18.4 °C 16.6 °C 1002.3 hPa South 11.3 km/h 22.5 km/h 89 % 0 mm 11 W/m2
20:42 18.3 °C 16.6 °C 1002.3 hPa South 12.9 km/h 22.5 km/h 90 % 0 mm 11 W/m2
20:47 18.2 °C 16.6 °C 1002.3 hPa South 11.3 km/h 19.3 km/h 90 % 0 mm 7 W/m2
20:52 18.2 °C 16.6 °C 1001.9 hPa South 11.3 km/h 19.3 km/h 90 % 0 mm 5 W/m2
20:57 18.1 °C 16.4 °C 1002.3 hPa South 11.3 km/h 19.3 km/h 90 % 0 mm 0 W/m2
21:02 18.1 °C 16.6 °C 1002.3 hPa SSE 9.7 km/h 19.3 km/h 91 % 0 mm 0 W/m2
21:07 18 °C 16.5 °C 1002.3 hPa South 11.3 km/h 22.5 km/h 91 % 0 mm 0 W/m2
21:12 17.9 °C 16.6 °C 1001.9 hPa South 12.9 km/h 22.5 km/h 92 % 0 mm 0 W/m2
21:17 17.9 °C 16.6 °C 1001.9 hPa South 9.7 km/h 20.9 km/h 92 % 0 mm 0 W/m2
21:22 17.9 °C 16.6 °C 1001.9 hPa South 9.7 km/h 19.3 km/h 92 % 0 mm 0 W/m2
21:27 17.9 °C 16.6 °C 1001.9 hPa South 11.3 km/h 20.9 km/h 92 % 0 mm 0 W/m2
21:32 17.8 °C 16.5 °C 1001.9 hPa SSE 11.3 km/h 20.9 km/h 92 % 0 mm 0 W/m2
21:37 17.8 °C 16.5 °C 1001.6 hPa SSE 11.3 km/h 17.7 km/h 92 % 0 mm 0 W/m2
21:42 17.8 °C 16.5 °C 1001.6 hPa SSE 11.3 km/h 17.7 km/h 92 % 0 mm 0 W/m2
21:47 17.7 °C 16.6 °C 1001.6 hPa SSE 11.3 km/h 17.7 km/h 93 % 0 mm 0 W/m2
21:52 17.7 °C 16.6 °C 1001.9 hPa SSE 11.3 km/h 16.1 km/h 93 % 0 mm 0 W/m2
21:53 17.7 °C 16.6 °C 1001.9 hPa SSE 9.7 km/h 16.1 km/h 93 % 0 mm 0 W/m2
21:58 17.7 °C 16.6 °C 1001.6 hPa SSE 8 km/h 16.1 km/h 93 % 0 mm 0 W/m2
22:03 17.7 °C 16.6 °C 1001.6 hPa South 8 km/h 16.1 km/h 93 % 0 mm 0 W/m2
22:08 17.7 °C 16.6 °C 1001.6 hPa South 8 km/h 16.1 km/h 93 % 0 mm 0 W/m2
22:13 17.8 °C 16.8 °C 1001.6 hPa South 8 km/h 16.1 km/h 94 % 0 mm 0 W/m2
22:18 17.8 °C 16.8 °C 1001.6 hPa South 8 km/h 16.1 km/h 94 % 0.25 mm 0 W/m2
22:23 17.8 °C 16.8 °C 1001.6 hPa South 8 km/h 14.5 km/h 94 % 0.25 mm 0 W/m2
22:28 17.8 °C 16.8 °C 1001.6 hPa SSW 8 km/h 14.5 km/h 94 % 0.25 mm 0 W/m2
22:33 17.8 °C 16.8 °C 1001.6 hPa SSW 8 km/h 14.5 km/h 94 % 0.25 mm 0 W/m2
22:38 17.8 °C 16.8 °C 1001.6 hPa SSW 9.7 km/h 19.3 km/h 94 % 0.25 mm 0 W/m2
22:43 17.8 °C 16.8 °C 1001.6 hPa SSW 11.3 km/h 19.3 km/h 94 % 0.51 mm 0 W/m2
22:48 17.7 °C 16.6 °C 1001.6 hPa SSW 11.3 km/h 19.3 km/h 93 % 0.76 mm 0 W/m2
22:53 17.7 °C 16.6 °C 1001.6 hPa SSW 9.7 km/h 19.3 km/h 93 % 1.27 mm 0 W/m2
22:58 17.6 °C 16.6 °C 1001.6 hPa SSW 9.7 km/h 22.5 km/h 94 % 1.52 mm 0 W/m2
23:03 17.6 °C 16.6 °C 1001.2 hPa SSW 9.7 km/h 22.5 km/h 94 % 1.52 mm 0 W/m2
23:08 17.5 °C 16.5 °C 1001.2 hPa SSW 9.7 km/h 16.1 km/h 94 % 1.52 mm 0 W/m2
23:13 17.4 °C 16.4 °C 1001.2 hPa SSW 9.7 km/h 16.1 km/h 94 % 1.52 mm 0 W/m2
23:18 17.4 °C 16.4 °C 1001.2 hPa SW 8 km/h 14.5 km/h 94 % 1.27 mm 0 W/m2
23:23 17.3 °C 16.3 °C 1001.2 hPa SSW 8 km/h 14.5 km/h 94 % 1.27 mm 0 W/m2
23:28 17.2 °C 16.2 °C 1001.2 hPa SW 8 km/h 12.9 km/h 94 % 1.27 mm 0 W/m2
23:34 17.2 °C 16.2 °C 1001.2 hPa SW 8 km/h 14.5 km/h 94 % 1.27 mm 0 W/m2
23:39 17.1 °C 16.1 °C 1001.2 hPa SW 9.7 km/h 16.1 km/h 94 % 1.27 mm 0 W/m2
23:44 17.1 °C 16.1 °C 1000.9 hPa SW 9.7 km/h 16.1 km/h 94 % 0.76 mm 0 W/m2
23:49 17.1 °C 16.1 °C 1000.9 hPa SW 9.7 km/h 16.1 km/h 94 % 0.25 mm 0 W/m2
23:54 17 °C 15.8 °C 1000.9 hPa SW 11.3 km/h 19.3 km/h 93 % 0.25 mm 0 W/m2
23:59 16.9 °C 15.8 °C 1000.9 hPa SW 11.3 km/h 19.3 km/h 93 % 0 mm 0 W/m2
Delerius-Weather
Compliments of Weather Underground - 2.25 mb

Data updates at regular intervals.